createdAt,value
2023-10-05T00:00:39.185Z,2.50
2023-10-05T00:03:45.538Z,2.17
2023-10-05T00:06:55.047Z,2.07
2023-10-05T00:09:59.205Z,1.90
2023-10-05T00:13:08.688Z,1.70
2023-10-05T00:16:21.784Z,1.97
2023-10-05T00:19:28.755Z,1.80
2023-10-05T00:22:33.991Z,1.57
2023-10-05T00:25:40.434Z,2.10
2023-10-05T00:28:54.770Z,2.77
2023-10-05T00:32:01.516Z,1.53
2023-10-05T00:35:18.029Z,1.67
2023-10-05T00:38:24.659Z,1.37
2023-10-05T00:41:29.360Z,1.60
2023-10-05T00:44:36.073Z,1.73
2023-10-05T00:47:41.145Z,1.70
2023-10-05T00:50:47.751Z,1.80
2023-10-05T00:53:57.786Z,1.70
2023-10-05T00:57:03.408Z,1.93
2023-10-05T01:00:27.540Z,2.10
2023-10-05T01:03:37.206Z,1.57
2023-10-05T01:06:43.909Z,1.63
2023-10-05T01:10:18.183Z,1.70
2023-10-05T01:13:31.033Z,1.80
2023-10-05T01:16:34.803Z,1.90
2023-10-05T01:19:40.378Z,1.80
2023-10-05T01:22:45.383Z,1.90
2023-10-05T01:25:50.448Z,2.27
2023-10-05T01:28:54.189Z,2.17
2023-10-05T01:31:58.083Z,2.13
2023-10-05T01:35:05.343Z,1.63
2023-10-05T01:38:12.987Z,2.07
2023-10-05T01:41:22.614Z,1.57
2023-10-05T01:44:27.559Z,1.47
2023-10-05T01:47:31.192Z,1.53
2023-10-05T01:50:34.892Z,2.30
2023-10-05T01:53:41.098Z,1.90
2023-10-05T01:56:49.068Z,2.47
2023-10-05T01:59:52.727Z,1.90
2023-10-05T02:02:57.284Z,1.77
2023-10-05T02:06:05.959Z,2.13
2023-10-05T02:09:10.724Z,1.83
2023-10-05T02:12:15.965Z,2.20
2023-10-05T02:15:20.367Z,2.00
2023-10-05T02:18:26.328Z,2.27
2023-10-05T02:21:32.366Z,2.37
2023-10-05T02:24:38.062Z,1.70
2023-10-05T02:27:47.842Z,2.10
2023-10-05T02:30:52.655Z,1.93
2023-10-05T02:33:56.600Z,2.07
2023-10-05T02:37:01.809Z,2.10
2023-10-05T02:40:09.827Z,1.83
2023-10-05T02:43:17.931Z,2.10
2023-10-05T02:46:23.574Z,1.63
2023-10-05T02:49:28.203Z,2.03
2023-10-05T02:52:34.381Z,1.93
2023-10-05T02:55:38.177Z,2.83
2023-10-05T02:58:44.846Z,1.87
2023-10-05T03:01:49.094Z,3.10
2023-10-05T03:04:59.059Z,2.27
2023-10-05T03:08:02.797Z,2.13
2023-10-05T03:11:09.738Z,2.30
2023-10-05T03:14:17.444Z,2.00
2023-10-05T03:17:22.992Z,2.67
2023-10-05T03:20:29.769Z,2.00
2023-10-05T03:23:33.578Z,2.00
2023-10-05T03:26:37.262Z,2.13
2023-10-05T03:29:47.008Z,1.80
2023-10-05T03:32:51.768Z,2.13
2023-10-05T03:35:58.511Z,2.80
2023-10-05T03:39:07.731Z,1.77
2023-10-05T03:42:14.738Z,2.00
2023-10-05T03:45:23.939Z,2.07
2023-10-05T03:48:28.805Z,1.80
2023-10-05T03:51:32.564Z,2.07
2023-10-05T03:54:39.931Z,2.10
2023-10-05T03:57:45.938Z,2.00
2023-10-05T04:00:51.924Z,2.00
2023-10-05T04:03:56.166Z,2.23
2023-10-05T04:06:59.960Z,2.90
2023-10-05T04:10:05.002Z,1.67
2023-10-05T04:13:09.445Z,2.27
2023-10-05T04:16:22.545Z,1.97
2023-10-05T04:19:26.336Z,1.93
2023-10-05T04:22:30.374Z,2.27
2023-10-05T04:25:34.320Z,1.97
2023-10-05T04:28:58.872Z,1.97
2023-10-05T04:32:04.958Z,1.80
2023-10-05T04:35:15.952Z,2.10
2023-10-05T04:38:23.460Z,1.80
2023-10-05T04:41:30.144Z,2.23
2023-10-05T04:44:35.398Z,1.93
2023-10-05T04:47:40.569Z,1.57
2023-10-05T04:50:45.021Z,1.67
2023-10-05T04:53:50.414Z,2.13
2023-10-05T04:57:08.259Z,1.97
2023-10-05T05:00:29.700Z,1.53
2023-10-05T05:03:49.710Z,3.13
2023-10-05T05:06:55.455Z,2.20
2023-10-05T05:10:03.182Z,2.00
2023-10-05T05:13:09.090Z,2.27
2023-10-05T05:16:13.102Z,2.10
2023-10-05T05:19:19.233Z,1.77
2023-10-05T05:22:23.073Z,2.13
2023-10-05T05:25:26.853Z,2.00
2023-10-05T05:28:30.744Z,2.07
2023-10-05T05:31:34.595Z,2.00
2023-10-05T05:34:42.706Z,1.60
2023-10-05T05:37:49.895Z,2.47
2023-10-05T05:40:54.686Z,1.83
2023-10-05T05:43:58.372Z,1.60
2023-10-05T05:47:09.201Z,1.97
2023-10-05T05:50:19.095Z,1.97
2023-10-05T05:53:23.523Z,2.17
2023-10-05T05:56:30.426Z,2.50
2023-10-05T05:59:35.785Z,1.93
2023-10-05T06:02:40.601Z,1.90
2023-10-05T06:05:45.989Z,1.80
2023-10-05T06:08:50.394Z,2.63
2023-10-05T06:11:54.554Z,2.03
2023-10-05T06:14:58.254Z,2.00
2023-10-05T06:18:01.977Z,1.90
2023-10-05T06:21:07.347Z,2.77
2023-10-05T06:24:11.821Z,2.20
2023-10-05T06:27:15.706Z,2.43
2023-10-05T06:30:22.348Z,1.97
2023-10-05T06:33:26.971Z,2.10
2023-10-05T06:36:32.324Z,2.47
2023-10-05T06:39:35.951Z,2.40
2023-10-05T06:42:41.243Z,3.00
2023-10-05T06:45:50.178Z,1.53
2023-10-05T06:48:53.957Z,2.43
2023-10-05T06:51:59.744Z,2.47
2023-10-05T06:55:03.633Z,2.70
2023-10-05T06:58:08.358Z,2.07
2023-10-05T07:01:12.372Z,2.23
2023-10-05T07:04:18.576Z,2.27
2023-10-05T07:07:24.000Z,2.17
2023-10-05T07:10:28.883Z,2.57
2023-10-05T07:13:32.697Z,2.07
2023-10-05T07:16:36.435Z,3.33
2023-10-05T07:19:40.221Z,2.30
2023-10-05T07:22:47.187Z,2.23
2023-10-05T07:25:51.051Z,1.97
2023-10-05T07:28:55.122Z,1.63
2023-10-05T07:31:59.034Z,2.27
2023-10-05T07:35:03.170Z,1.97
2023-10-05T07:38:12.755Z,1.80
2023-10-05T07:41:17.891Z,2.10
2023-10-05T07:44:22.103Z,2.23
2023-10-05T07:47:26.497Z,2.20
2023-10-05T07:50:30.202Z,2.33
2023-10-05T07:53:35.385Z,1.73
2023-10-05T07:56:39.128Z,1.97
2023-10-05T07:59:44.742Z,2.23
2023-10-05T08:02:48.984Z,2.07
2023-10-05T08:05:52.737Z,2.07
2023-10-05T08:08:57.716Z,2.00
2023-10-05T08:12:01.412Z,2.07
2023-10-05T08:15:06.597Z,2.40
2023-10-05T08:18:10.722Z,2.23
2023-10-05T08:21:15.665Z,2.23
2023-10-05T08:24:22.188Z,3.07
2023-10-05T08:27:27.283Z,2.13
2023-10-05T08:30:34.836Z,2.50
2023-10-05T08:33:39.604Z,2.63
2023-10-05T08:36:43.638Z,2.17
2023-10-05T08:39:49.683Z,2.53
2023-10-05T08:42:57.410Z,2.47
2023-10-05T08:46:11.849Z,2.23
2023-10-05T08:49:17.106Z,2.70
2023-10-05T08:52:21.776Z,2.90
2023-10-05T08:55:30.945Z,2.50
2023-10-05T08:58:36.237Z,3.00
2023-10-05T09:01:41.337Z,2.87
2023-10-05T09:04:52.988Z,2.00
2023-10-05T09:07:58.273Z,2.57
2023-10-05T09:11:10.559Z,2.47
2023-10-05T09:14:28.585Z,2.87
2023-10-05T09:17:35.026Z,2.63
2023-10-05T09:20:40.029Z,2.60
2023-10-05T09:23:45.853Z,2.70
2023-10-05T09:26:55.516Z,2.67
2023-10-05T09:30:10.994Z,2.73
2023-10-05T09:33:23.462Z,2.77
2023-10-05T09:36:29.559Z,3.27
2023-10-05T09:39:38.390Z,2.63
2023-10-05T09:42:45.487Z,2.50
2023-10-05T09:45:54.365Z,2.73
2023-10-05T09:49:02.929Z,2.57
2023-10-05T09:52:07.785Z,2.27
2023-10-05T09:55:14.278Z,3.20
2023-10-05T09:58:21.567Z,3.20
2023-10-05T10:01:25.774Z,3.63
2023-10-05T10:04:37.789Z,3.40
2023-10-05T10:07:42.426Z,2.93
2023-10-05T10:10:59.634Z,2.13
2023-10-05T10:14:11.366Z,1.90
2023-10-05T10:17:28.375Z,1.27
2023-10-05T10:20:37.488Z,1.37
2023-10-05T10:23:41.380Z,0.60
2023-10-05T10:26:47.049Z,0.80
2023-10-05T10:29:57.962Z,0.80
2023-10-05T10:33:26.013Z,0.80
2023-10-05T10:36:54.447Z,0.70
2023-10-05T10:40:00.688Z,0.60
2023-10-05T10:43:10.896Z,1.17
2023-10-05T10:46:29.892Z,0.80
2023-10-05T10:49:33.651Z,0.77
2023-10-05T10:52:37.884Z,1.00
2023-10-05T10:55:49.047Z,1.40
2023-10-05T10:58:58.040Z,0.90
2023-10-05T11:02:13.074Z,0.80
2023-10-05T11:05:19.548Z,0.80
2023-10-05T11:08:23.716Z,0.97
2023-10-05T11:11:27.576Z,1.37
2023-10-05T11:14:33.967Z,0.97
2023-10-05T11:17:45.559Z,1.10
2023-10-05T11:20:53.717Z,0.90
2023-10-05T11:24:07.942Z,0.70
2023-10-05T11:27:17.919Z,1.40
2023-10-05T11:30:40.200Z,0.80
2023-10-05T11:34:09.246Z,1.27
2023-10-05T11:37:17.932Z,0.90
2023-10-05T11:40:25.131Z,0.70
2023-10-05T11:43:30.779Z,0.93
2023-10-05T11:46:45.614Z,0.70
2023-10-05T11:49:52.576Z,0.80
2023-10-05T11:52:56.500Z,0.87
2023-10-05T11:56:02.103Z,1.10
2023-10-05T11:59:06.898Z,1.00
2023-10-05T12:02:11.251Z,0.90
2023-10-05T12:05:17.354Z,1.03
2023-10-05T12:08:21.190Z,1.00
2023-10-05T12:11:27.742Z,1.00
2023-10-05T12:14:32.189Z,0.90
2023-10-05T12:17:38.781Z,1.03
2023-10-05T12:20:44.405Z,1.10
2023-10-05T12:23:48.202Z,1.30
2023-10-05T12:26:52.231Z,1.00
2023-10-05T12:29:56.140Z,1.47
2023-10-05T12:33:02.795Z,1.20
2023-10-05T12:36:10.336Z,1.37
2023-10-05T12:39:15.476Z,0.93
2023-10-05T12:42:22.079Z,1.17
2023-10-05T12:45:26.624Z,0.67
2023-10-05T12:48:30.634Z,1.63
2023-10-05T12:51:36.263Z,1.10
2023-10-05T12:54:43.847Z,1.20
2023-10-05T12:57:51.702Z,1.17
2023-10-05T13:00:55.923Z,0.97
2023-10-05T13:03:59.777Z,1.03
2023-10-05T13:07:05.729Z,1.23
2023-10-05T13:10:19.294Z,1.43
2023-10-05T13:13:23.344Z,1.57
2023-10-05T13:16:29.930Z,1.10
2023-10-05T13:19:33.966Z,1.50
2023-10-05T13:22:45.372Z,1.10
2023-10-05T13:25:50.516Z,1.57
2023-10-05T13:28:54.872Z,1.70
2023-10-05T13:31:58.659Z,1.33
2023-10-05T13:35:04.605Z,1.70
2023-10-05T13:38:13.330Z,1.20
2023-10-05T13:41:20.070Z,1.63
2023-10-05T13:44:24.453Z,0.93
2023-10-05T13:47:43.175Z,1.00
2023-10-05T13:50:54.804Z,1.03
2023-10-05T13:53:59.911Z,1.17
2023-10-05T13:57:05.068Z,0.90
2023-10-05T14:00:19.278Z,0.70
2023-10-05T14:03:23.052Z,1.13
2023-10-05T14:06:30.934Z,0.90
2023-10-05T14:09:44.642Z,0.50
2023-10-05T14:12:48.381Z,0.80
2023-10-05T14:15:52.183Z,1.10
2023-10-05T14:18:56.469Z,0.60
2023-10-05T14:22:02.153Z,0.80
2023-10-05T14:25:18.399Z,1.20
2023-10-05T14:28:25.182Z,0.50
2023-10-05T14:31:30.742Z,1.23
2023-10-05T14:34:35.062Z,1.00
2023-10-05T14:37:43.587Z,1.00
2023-10-05T14:40:52.261Z,1.03
2023-10-05T14:43:59.341Z,1.10
2023-10-05T14:47:05.865Z,1.40
2023-10-05T14:50:12.607Z,1.20
2023-10-05T14:53:18.285Z,2.07
2023-10-05T14:56:24.913Z,1.63
2023-10-05T14:59:28.887Z,1.77
2023-10-05T15:02:34.848Z,1.30
2023-10-05T15:05:38.581Z,1.90
2023-10-05T15:08:42.209Z,1.27
2023-10-05T15:11:47.289Z,2.03
2023-10-05T15:14:51.511Z,1.37
2023-10-05T15:17:55.749Z,1.07
2023-10-05T15:20:59.729Z,1.33
2023-10-05T15:24:04.235Z,1.60
2023-10-05T15:27:10.007Z,1.97
2023-10-05T15:30:16.655Z,2.00
2023-10-05T15:33:20.387Z,1.70
2023-10-05T15:36:24.261Z,2.40
2023-10-05T15:39:27.901Z,2.67
2023-10-05T15:42:33.460Z,2.30
2023-10-05T15:45:37.828Z,2.37
2023-10-05T15:48:43.864Z,2.00
2023-10-05T15:51:47.691Z,2.47
2023-10-05T15:54:51.978Z,2.30
2023-10-05T15:57:58.411Z,2.20
2023-10-05T16:01:04.695Z,2.07
2023-10-05T16:04:11.305Z,2.03
2023-10-05T16:07:17.577Z,2.07
2023-10-05T16:10:22.097Z,1.70
2023-10-05T16:13:27.359Z,1.57
2023-10-05T16:16:31.168Z,1.90
2023-10-05T16:19:39.208Z,1.33
2023-10-05T16:22:44.478Z,1.83
2023-10-05T16:25:48.380Z,1.90
2023-10-05T16:28:53.640Z,1.77
2023-10-05T16:31:58.958Z,1.70
2023-10-05T16:35:02.669Z,1.80
2023-10-05T16:38:07.118Z,1.30
2023-10-05T16:41:11.960Z,1.73
2023-10-05T16:44:16.963Z,1.20
2023-10-05T16:47:20.742Z,1.60
2023-10-05T16:50:27.264Z,2.83
2023-10-05T16:53:30.955Z,2.00
2023-10-05T16:56:51.515Z,3.27
2023-10-05T16:59:59.152Z,2.33
2023-10-05T17:03:04.141Z,2.40
2023-10-05T17:06:08.105Z,1.63
2023-10-05T17:09:12.114Z,2.33
2023-10-05T17:12:15.818Z,2.10
2023-10-05T17:15:27.402Z,1.73
2023-10-05T17:18:31.213Z,2.10
2023-10-05T17:21:35.796Z,2.47
2023-10-05T17:24:40.387Z,2.80
2023-10-05T17:27:44.386Z,2.23
2023-10-05T17:30:49.654Z,2.30
2023-10-05T17:33:53.543Z,2.63
2023-10-05T17:36:57.230Z,2.50
2023-10-05T17:40:01.029Z,2.17
2023-10-05T17:43:05.225Z,2.17
2023-10-05T17:46:10.347Z,2.03
2023-10-05T17:49:15.746Z,2.40
2023-10-05T17:52:20.102Z,2.20
2023-10-05T17:55:23.986Z,2.10
2023-10-05T17:58:28.690Z,1.93
2023-10-05T18:01:34.220Z,2.10
2023-10-05T18:04:38.073Z,1.57
2023-10-05T18:07:41.809Z,2.00
2023-10-05T18:10:45.820Z,1.57
2023-10-05T18:13:49.901Z,1.63
2023-10-05T18:16:56.316Z,2.87
2023-10-05T18:20:00.165Z,2.10
2023-10-05T18:23:03.985Z,2.03
2023-10-05T18:26:08.069Z,1.90
2023-10-05T18:29:13.777Z,1.87
2023-10-05T18:32:19.679Z,1.47
2023-10-05T18:35:23.478Z,1.57
2023-10-05T18:38:28.212Z,1.50
2023-10-05T18:41:32.143Z,1.33
2023-10-05T18:44:40.096Z,1.80
2023-10-05T18:47:46.144Z,1.50
2023-10-05T18:50:49.876Z,2.13
2023-10-05T18:53:53.833Z,1.83
2023-10-05T18:56:57.484Z,2.20
2023-10-05T19:00:02.143Z,2.47
2023-10-05T19:03:08.166Z,1.80
2023-10-05T19:06:11.944Z,1.83
2023-10-05T19:09:15.599Z,1.60
2023-10-05T19:12:20.342Z,1.83
2023-10-05T19:15:24.462Z,2.10
2023-10-05T19:18:32.240Z,1.50
2023-10-05T19:21:36.279Z,1.67
2023-10-05T19:24:39.957Z,1.77
2023-10-05T19:27:43.649Z,1.23
2023-10-05T19:30:47.435Z,1.50
2023-10-05T19:33:52.563Z,1.70
2023-10-05T19:36:56.250Z,1.70
2023-10-05T19:40:00.186Z,1.40
2023-10-05T19:43:04.817Z,1.53
2023-10-05T19:46:08.850Z,1.60
2023-10-05T19:49:14.014Z,2.00
2023-10-05T19:52:17.824Z,1.80
2023-10-05T19:55:21.625Z,1.43
2023-10-05T19:58:25.684Z,1.50
2023-10-05T20:01:30.781Z,1.70
2023-10-05T20:04:35.847Z,2.67
2023-10-05T20:07:39.696Z,2.53
2023-10-05T20:10:43.649Z,2.53
2023-10-05T20:13:47.324Z,2.57
2023-10-05T20:16:51.002Z,2.70
2023-10-05T20:19:56.230Z,2.23
2023-10-05T20:23:01.009Z,2.37
2023-10-05T20:26:05.225Z,2.47
2023-10-05T20:29:08.928Z,3.50
2023-10-05T20:32:12.745Z,3.67
2023-10-05T20:35:18.205Z,3.37
2023-10-05T20:38:21.856Z,4.23
2023-10-05T20:41:25.541Z,3.53
2023-10-05T20:44:29.662Z,4.20
2023-10-05T20:47:35.087Z,3.80
2023-10-05T20:50:41.168Z,4.07
2023-10-05T20:53:44.871Z,4.20
2023-10-05T20:56:48.628Z,4.30
2023-10-05T20:59:54.080Z,4.20
2023-10-05T21:02:57.858Z,5.23
2023-10-05T21:06:05.862Z,5.07
2023-10-05T21:09:10.783Z,4.67
2023-10-05T21:12:16.566Z,5.03
2023-10-05T21:15:21.495Z,5.20
2023-10-05T21:18:25.250Z,5.20
2023-10-05T21:21:30.576Z,5.50
2023-10-05T21:24:34.328Z,5.07
2023-10-05T21:27:38.270Z,5.43
2023-10-05T21:30:42.362Z,5.17
2023-10-05T21:33:46.298Z,6.07
2023-10-05T21:36:51.327Z,5.17
2023-10-05T21:39:55.289Z,5.43
2023-10-05T21:42:59.267Z,5.50
2023-10-05T21:46:03.087Z,6.00
2023-10-05T21:49:09.067Z,6.53
2023-10-05T21:52:14.320Z,5.90
2023-10-05T21:55:18.260Z,5.67
2023-10-05T21:58:22.021Z,4.97
2023-10-05T22:01:26.311Z,6.37
2023-10-05T22:04:32.914Z,6.50
2023-10-05T22:07:40.454Z,6.00
2023-10-05T22:10:46.981Z,6.43
2023-10-05T22:13:50.739Z,6.33
2023-10-05T22:16:54.712Z,6.57
2023-10-05T22:20:00.407Z,6.27
2023-10-05T22:23:09.253Z,6.90
2023-10-05T22:26:12.997Z,6.40
2023-10-05T22:29:16.801Z,6.90
2023-10-05T22:32:20.485Z,6.50
2023-10-05T22:35:24.288Z,6.27
2023-10-05T22:38:41.193Z,7.00
2023-10-05T22:41:47.875Z,7.03
2023-10-05T22:44:51.612Z,6.67
2023-10-05T22:47:55.349Z,6.77
2023-10-05T22:50:59.073Z,5.93
2023-10-05T22:54:04.446Z,6.43
2023-10-05T22:57:08.153Z,7.43
2023-10-05T23:00:13.577Z,7.73
2023-10-05T23:03:17.429Z,7.00
2023-10-05T23:06:21.167Z,7.70
2023-10-05T23:09:27.840Z,8.00
2023-10-05T23:12:31.559Z,8.30
2023-10-05T23:15:35.765Z,6.70
2023-10-05T23:18:39.572Z,8.47
2023-10-05T23:21:45.830Z,9.43
2023-10-05T23:24:57.240Z,7.03
2023-10-05T23:28:01.081Z,8.53
2023-10-05T23:31:17.103Z,9.00
2023-10-05T23:34:21.075Z,8.60
2023-10-05T23:37:27.413Z,8.60
2023-10-05T23:40:37.278Z,7.80
2023-10-05T23:43:44.465Z,7.17
2023-10-05T23:46:48.765Z,7.90
2023-10-05T23:49:54.569Z,9.63
2023-10-05T23:52:59.371Z,9.23
2023-10-05T23:56:10.854Z,8.73
2023-10-05T23:59:16.058Z,9.57
